sensor_id;sensor_type;location;lat;lon;timestamp;pressure;altitude;pressure_sealevel;temperature;humidity
3444;BME280;1736;52.068;6.968;2023-04-09T00:00:43;102119.56;;;8.98;91.92
3444;BME280;1736;52.068;6.968;2023-04-09T00:03:11;102120.41;;;8.98;92.16
3444;BME280;1736;52.068;6.968;2023-04-09T00:05:38;102118.59;;;8.99;92.53
3444;BME280;1736;52.068;6.968;2023-04-09T00:08:05;102116.16;;;8.96;92.37
3444;BME280;1736;52.068;6.968;2023-04-09T00:10:32;102126.47;;;9.00;91.64
3444;BME280;1736;52.068;6.968;2023-04-09T00:16:20;102121.59;;;9.08;89.06
3444;BME280;1736;52.068;6.968;2023-04-09T00:25:35;102122.47;;;9.09;87.11
3444;BME280;1736;52.068;6.968;2023-04-09T00:28:01;102122.28;;;8.96;87.56
3444;BME280;1736;52.068;6.968;2023-04-09T00:30:28;102117.69;;;9.00;87.84
3444;BME280;1736;52.068;6.968;2023-04-09T00:32:55;102115.13;;;8.98;87.76
3444;BME280;1736;52.068;6.968;2023-04-09T00:35:21;102118.53;;;9.00;87.47
3444;BME280;1736;52.068;6.968;2023-04-09T00:37:48;102108.97;;;8.98;87.94
3444;BME280;1736;52.068;6.968;2023-04-09T00:40:14;102104.69;;;8.95;87.31
3444;BME280;1736;52.068;6.968;2023-04-09T00:42:42;102111.88;;;8.93;87.84
3444;BME280;1736;52.068;6.968;2023-04-09T00:45:09;102106.38;;;8.96;87.45
3444;BME280;1736;52.068;6.968;2023-04-09T00:47:36;102108.13;;;8.97;87.13
3444;BME280;1736;52.068;6.968;2023-04-09T00:50:03;102103.75;;;8.96;86.83
3444;BME280;1736;52.068;6.968;2023-04-09T00:52:29;102096.00;;;8.93;87.01
3444;BME280;1736;52.068;6.968;2023-04-09T00:54:58;102100.06;;;8.99;86.67
3444;BME280;1736;52.068;6.968;2023-04-09T00:57:25;102093.44;;;8.92;86.43
3444;BME280;1736;52.068;6.968;2023-04-09T00:59:54;102092.72;;;8.88;86.54
3444;BME280;1736;52.068;6.968;2023-04-09T01:02:21;102090.94;;;8.89;86.50
3444;BME280;1736;52.068;6.968;2023-04-09T01:04:47;102085.81;;;8.86;86.93
3444;BME280;1736;52.068;6.968;2023-04-09T01:07:19;102091.28;;;8.83;87.34
3444;BME280;1736;52.068;6.968;2023-04-09T01:09:59;102087.41;;;8.73;87.72
3444;BME280;1736;52.068;6.968;2023-04-09T01:12:32;102086.72;;;8.69;88.22
3444;BME280;1736;52.068;6.968;2023-04-09T01:15:06;102085.41;;;8.61;88.51
3444;BME280;1736;52.068;6.968;2023-04-09T01:17:37;102084.13;;;8.52;89.15
3444;BME280;1736;52.068;6.968;2023-04-09T01:20:09;102086.00;;;8.50;89.45
3444;BME280;1736;52.068;6.968;2023-04-09T01:22:47;102078.47;;;8.43;89.07
3444;BME280;1736;52.068;6.968;2023-04-09T01:25:29;102084.78;;;8.40;88.89
3444;BME280;1736;52.068;6.968;2023-04-09T01:28:13;102081.69;;;8.32;89.26
3444;BME280;1736;52.068;6.968;2023-04-09T01:30:43;102079.34;;;8.26;89.58
3444;BME280;1736;52.068;6.968;2023-04-09T01:33:12;102079.72;;;8.19;89.79
3444;BME280;1736;52.068;6.968;2023-04-09T01:35:40;102072.34;;;8.08;89.53
3444;BME280;1736;52.068;6.968;2023-04-09T01:38:08;102075.47;;;7.99;90.38
3444;BME280;1736;52.068;6.968;2023-04-09T01:40:36;102075.63;;;7.96;90.81
3444;BME280;1736;52.068;6.968;2023-04-09T01:43:04;102076.84;;;7.89;90.31
3444;BME280;1736;52.068;6.968;2023-04-09T01:45:33;102073.13;;;7.76;90.79
3444;BME280;1736;52.068;6.968;2023-04-09T01:48:00;102066.75;;;7.63;91.57
3444;BME280;1736;52.068;6.968;2023-04-09T01:50:26;102065.53;;;7.52;92.50
3444;BME280;1736;52.068;6.968;2023-04-09T01:52:53;102068.72;;;7.41;93.14
3444;BME280;1736;52.068;6.968;2023-04-09T01:55:20;102080.97;;;7.42;92.67
3444;BME280;1736;52.068;6.968;2023-04-09T01:57:46;102082.06;;;7.38;93.04
3444;BME280;1736;52.068;6.968;2023-04-09T02:00:13;102079.09;;;7.27;93.62
3444;BME280;1736;52.068;6.968;2023-04-09T02:02:45;102072.31;;;7.22;94.18
3444;BME280;1736;52.068;6.968;2023-04-09T02:05:16;102070.91;;;7.15;93.93
3444;BME280;1736;52.068;6.968;2023-04-09T02:07:46;102069.47;;;7.08;94.82
3444;BME280;1736;52.068;6.968;2023-04-09T02:10:17;102074.19;;;7.01;94.71
3444;BME280;1736;52.068;6.968;2023-04-09T02:12:48;102073.63;;;6.95;95.61
3444;BME280;1736;52.068;6.968;2023-04-09T02:15:16;102070.22;;;6.93;96.19
3444;BME280;1736;52.068;6.968;2023-04-09T02:17:45;102069.66;;;6.86;96.09
3444;BME280;1736;52.068;6.968;2023-04-09T02:20:15;102068.22;;;6.79;96.35
3444;BME280;1736;52.068;6.968;2023-04-09T02:22:42;102066.78;;;6.72;97.36
3444;BME280;1736;52.068;6.968;2023-04-09T02:25:09;102062.72;;;6.65;97.18
3444;BME280;1736;52.068;6.968;2023-04-09T02:27:35;102065.50;;;6.62;97.98
3444;BME280;1736;52.068;6.968;2023-04-09T02:30:02;102070.13;;;6.57;98.17
3444;BME280;1736;52.068;6.968;2023-04-09T02:32:29;102068.78;;;6.67;97.86
3444;BME280;1736;52.068;6.968;2023-04-09T02:34:57;102061.16;;;6.61;97.71
3444;BME280;1736;52.068;6.968;2023-04-09T02:37:24;102064.19;;;6.52;98.28
3444;BME280;1736;52.068;6.968;2023-04-09T02:39:50;102065.41;;;6.45;98.54
3444;BME280;1736;52.068;6.968;2023-04-09T02:42:17;102059.47;;;6.40;99.37
3444;BME280;1736;52.068;6.968;2023-04-09T02:44:43;102061.47;;;6.35;99.61
3444;BME280;1736;52.068;6.968;2023-04-09T02:47:10;102059.47;;;6.40;98.99
3444;BME280;1736;52.068;6.968;2023-04-09T02:49:36;102049.56;;;6.27;99.83
3444;BME280;1736;52.068;6.968;2023-04-09T02:52:04;102050.91;;;6.35;100.00
3444;BME280;1736;52.068;6.968;2023-04-09T02:54:31;102037.44;;;6.23;99.62
3444;BME280;1736;52.068;6.968;2023-04-09T02:56:57;102035.94;;;6.17;100.00
3444;BME280;1736;52.068;6.968;2023-04-09T02:59:24;102036.97;;;6.13;100.00
3444;BME280;1736;52.068;6.968;2023-04-09T03:01:50;102032.13;;;6.04;100.00
3444;BME280;1736;52.068;6.968;2023-04-09T03:04:17;102040.94;;;6.03;100.00
3444;BME280;1736;52.068;6.968;2023-04-09T03:06:43;102032.50;;;5.95;100.00
3444;BME280;1736;52.068;6.968;2023-04-09T03:09:11;102040.69;;;5.89;100.00
3444;BME280;1736;52.068;6.968;2023-04-09T03:11:37;102027.75;;;5.83;100.00
3444;BME280;1736;52.068;6.968;2023-04-09T03:14:04;102029.34;;;5.87;100.00
3444;BME280;1736;52.068;6.968;2023-04-09T03:16:30;102027.81;;;5.82;100.00
3444;BME280;1736;52.068;6.968;2023-04-09T03:18:57;102030.50;;;5.80;100.00
3444;BME280;1736;52.068;6.968;2023-04-09T03:21:23;102035.19;;;5.74;100.00
3444;BME280;1736;52.068;6.968;2023-04-09T03:23:51;102022.19;;;5.69;100.00
3444;BME280;1736;52.068;6.968;2023-04-09T03:26:19;102024.19;;;5.64;100.00
3444;BME280;1736;52.068;6.968;2023-04-09T03:28:45;102026.00;;;5.62;100.00
3444;BME280;1736;52.068;6.968;2023-04-09T03:31:12;102023.91;;;5.70;100.00
3444;BME280;1736;52.068;6.968;2023-04-09T03:33:38;102029.69;;;5.58;100.00
3444;BME280;1736;52.068;6.968;2023-04-09T03:36:05;102026.41;;;5.53;100.00
3444;BME280;1736;52.068;6.968;2023-04-09T03:38:33;102023.88;;;5.50;100.00
3444;BME280;1736;52.068;6.968;2023-04-09T03:40:59;102024.16;;;5.44;100.00
3444;BME280;1736;52.068;6.968;2023-04-09T03:43:27;102021.63;;;5.41;100.00
3444;BME280;1736;52.068;6.968;2023-04-09T03:45:54;102022.63;;;5.38;100.00
3444;BME280;1736;52.068;6.968;2023-04-09T03:48:20;102022.75;;;5.35;100.00
3444;BME280;1736;52.068;6.968;2023-04-09T03:50:47;102029.72;;;5.36;100.00
3444;BME280;1736;52.068;6.968;2023-04-09T03:53:13;102025.44;;;5.34;100.00
3444;BME280;1736;52.068;6.968;2023-04-09T03:55:40;102026.38;;;5.33;100.00
3444;BME280;1736;52.068;6.968;2023-04-09T03:58:06;102030.84;;;5.31;100.00
3444;BME280;1736;52.068;6.968;2023-04-09T04:00:34;102032.00;;;5.24;100.00
3444;BME280;1736;52.068;6.968;2023-04-09T04:03:01;102029.50;;;5.21;100.00
3444;BME280;1736;52.068;6.968;2023-04-09T04:05:27;102033.97;;;5.19;100.00
3444;BME280;1736;52.068;6.968;2023-04-09T04:07:54;102024.59;;;5.12;100.00
3444;BME280;1736;52.068;6.968;2023-04-09T04:10:20;102022.34;;;5.03;100.00
3444;BME280;1736;52.068;6.968;2023-04-09T04:12:47;102030.25;;;5.03;100.00
3444;BME280;1736;52.068;6.968;2023-04-09T04:15:13;102032.94;;;5.01;100.00
3444;BME280;1736;52.068;6.968;2023-04-09T04:17:41;102026.84;;;4.99;100.00
3444;BME280;1736;52.068;6.968;2023-04-09T04:20:09;102030.25;;;5.03;100.00
3444;BME280;1736;52.068;6.968;2023-04-09T04:22:36;102028.50;;;5.02;100.00
3444;BME280;1736;52.068;6.968;2023-04-09T04:25:03;102031.34;;;4.97;100.00
3444;BME280;1736;52.068;6.968;2023-04-09T04:27:30;102025.47;;;4.91;100.00
3444;BME280;1736;52.068;6.968;2023-04-09T04:29:56;102033.53;;;4.86;100.00
3444;BME280;1736;52.068;6.968;2023-04-09T04:32:24;102032.78;;;4.83;100.00
3444;BME280;1736;52.068;6.968;2023-04-09T04:34:52;102030.38;;;4.77;100.00
3444;BME280;1736;52.068;6.968;2023-04-09T04:37:19;102035.41;;;4.83;100.00
3444;BME280;1736;52.068;6.968;2023-04-09T04:39:45;102024.22;;;4.78;100.00
3444;BME280;1736;52.068;6.968;2023-04-09T04:42:12;102033.94;;;4.76;100.00
3444;BME280;1736;52.068;6.968;2023-04-09T04:44:38;102033.78;;;4.80;100.00
3444;BME280;1736;52.068;6.968;2023-04-09T04:47:05;102034.00;;;4.74;100.00
3444;BME280;1736;52.068;6.968;2023-04-09T04:49:31;102026.09;;;4.74;100.00
3444;BME280;1736;52.068;6.968;2023-04-09T04:51:59;102026.22;;;4.71;100.00
3444;BME280;1736;52.068;6.968;2023-04-09T04:54:26;102029.81;;;4.69;100.00
3444;BME280;1736;52.068;6.968;2023-04-09T04:56:52;102028.22;;;4.65;100.00
3444;BME280;1736;52.068;6.968;2023-04-09T04:59:20;102026.63;;;4.61;100.00
3444;BME280;1736;52.068;6.968;2023-04-09T05:01:46;102024.91;;;4.60;100.00
3444;BME280;1736;52.068;6.968;2023-04-09T05:04:13;102024.88;;;4.61;100.00
3444;BME280;1736;52.068;6.968;2023-04-09T05:06:40;102034.47;;;4.62;100.00
3444;BME280;1736;52.068;6.968;2023-04-09T05:09:08;102031.00;;;4.62;100.00
3444;BME280;1736;52.068;6.968;2023-04-09T05:11:34;102035.44;;;4.60;100.00
3444;BME280;1736;52.068;6.968;2023-04-09T05:14:01;102034.66;;;4.58;100.00
3444;BME280;1736;52.068;6.968;2023-04-09T05:16:27;102028.53;;;4.57;100.00
3444;BME280;1736;52.068;6.968;2023-04-09T05:19:02;102034.81;;;4.53;100.00
3444;BME280;1736;52.068;6.968;2023-04-09T05:21:28;102033.16;;;4.51;100.00
3444;BME280;1736;52.068;6.968;2023-04-09T05:23:55;102035.78;;;4.51;100.00
3444;BME280;1736;52.068;6.968;2023-04-09T05:26:23;102037.13;;;4.61;100.00
3444;BME280;1736;52.068;6.968;2023-04-09T05:28:51;102034.41;;;4.64;100.00
3444;BME280;1736;52.068;6.968;2023-04-09T05:31:17;102038.13;;;4.58;100.00
3444;BME280;1736;52.068;6.968;2023-04-09T05:33:44;102044.91;;;4.64;100.00
3444;BME280;1736;52.068;6.968;2023-04-09T05:36:14;102043.78;;;4.71;100.00
3444;BME280;1736;52.068;6.968;2023-04-09T05:38:55;102037.38;;;4.78;100.00
3444;BME280;1736;52.068;6.968;2023-04-09T05:41:21;102033.53;;;4.86;100.00
3444;BME280;1736;52.068;6.968;2023-04-09T05:43:49;102040.94;;;4.98;100.00
3444;BME280;1736;52.068;6.968;2023-04-09T05:46:15;102045.00;;;5.07;100.00
3444;BME280;1736;52.068;6.968;2023-04-09T05:48:42;102034.94;;;5.16;100.00
3444;BME280;1736;52.068;6.968;2023-04-09T05:51:08;102036.91;;;5.33;100.00
3444;BME280;1736;52.068;6.968;2023-04-09T05:53:35;102038.91;;;5.48;100.00
3444;BME280;1736;52.068;6.968;2023-04-09T05:56:02;102036.31;;;5.68;100.00
3444;BME280;1736;52.068;6.968;2023-04-09T05:58:28;102034.09;;;5.78;100.00
3444;BME280;1736;52.068;6.968;2023-04-09T06:00:56;102028.28;;;5.91;100.00
3444;BME280;1736;52.068;6.968;2023-04-09T06:03:23;102032.19;;;6.03;100.00
3444;BME280;1736;52.068;6.968;2023-04-09T06:05:49;102031.72;;;6.13;100.00
3444;BME280;1736;52.068;6.968;2023-04-09T06:08:16;102030.25;;;6.26;100.00
3444;BME280;1736;52.068;6.968;2023-04-09T06:10:42;102021.56;;;6.43;100.00
3444;BME280;1736;52.068;6.968;2023-04-09T06:13:09;102029.34;;;6.64;100.00
3444;BME280;1736;52.068;6.968;2023-04-09T06:15:36;102028.00;;;6.74;100.00
3444;BME280;1736;52.068;6.968;2023-04-09T06:18:04;102028.44;;;6.84;99.76
3444;BME280;1736;52.068;6.968;2023-04-09T06:20:31;102032.41;;;6.92;99.12
3444;BME280;1736;52.068;6.968;2023-04-09T06:22:57;102044.50;;;7.15;97.86
3444;BME280;1736;52.068;6.968;2023-04-09T06:25:24;102034.81;;;7.15;96.42
3444;BME280;1736;52.068;6.968;2023-04-09T06:27:51;102035.38;;;7.22;95.64
3444;BME280;1736;52.068;6.968;2023-04-09T06:30:17;102048.38;;;7.43;95.40
3444;BME280;1736;52.068;6.968;2023-04-09T06:32:44;102037.97;;;7.57;95.13
3444;BME280;1736;52.068;6.968;2023-04-09T06:35:14;102046.69;;;7.59;94.28
3444;BME280;1736;52.068;6.968;2023-04-09T06:37:40;102046.69;;;7.76;94.06
3444;BME280;1736;52.068;6.968;2023-04-09T06:40:08;102049.41;;;7.92;92.11
3444;BME280;1736;52.068;6.968;2023-04-09T06:42:34;102053.19;;;8.03;90.93
3444;BME280;1736;52.068;6.968;2023-04-09T06:45:02;102047.59;;;8.09;90.29
3444;BME280;1736;52.068;6.968;2023-04-09T06:47:32;102049.16;;;8.13;89.54
3444;BME280;1736;52.068;6.968;2023-04-09T06:49:59;102046.50;;;8.13;89.52
3444;BME280;1736;52.068;6.968;2023-04-09T06:52:26;102050.09;;;8.29;88.79
3444;BME280;1736;52.068;6.968;2023-04-09T06:54:53;102048.09;;;8.50;89.06
3444;BME280;1736;52.068;6.968;2023-04-09T06:57:19;102056.97;;;8.49;87.48
3444;BME280;1736;52.068;6.968;2023-04-09T06:59:46;102056.66;;;8.55;87.18
3444;BME280;1736;52.068;6.968;2023-04-09T07:02:12;102061.19;;;8.68;87.44
3444;BME280;1736;52.068;6.968;2023-04-09T07:04:41;102065.88;;;8.63;87.11
3444;BME280;1736;52.068;6.968;2023-04-09T07:07:08;102065.72;;;8.66;87.12
3444;BME280;1736;52.068;6.968;2023-04-09T07:09:36;102055.22;;;8.80;87.76
3444;BME280;1736;52.068;6.968;2023-04-09T07:12:02;102060.94;;;8.88;87.70
3444;BME280;1736;52.068;6.968;2023-04-09T07:14:29;102060.28;;;8.69;86.22
3444;BME280;1736;52.068;6.968;2023-04-09T07:16:55;102064.22;;;8.93;86.29
3444;BME280;1736;52.068;6.968;2023-04-09T07:19:22;102066.63;;;9.13;85.77
3444;BME280;1736;52.068;6.968;2023-04-09T07:21:48;102069.59;;;9.38;85.09
3444;BME280;1736;52.068;6.968;2023-04-09T07:24:15;102074.34;;;9.47;85.01
3444;BME280;1736;52.068;6.968;2023-04-09T07:26:43;102063.91;;;9.60;84.24
3444;BME280;1736;52.068;6.968;2023-04-09T07:29:09;102064.41;;;9.66;83.22
3444;BME280;1736;52.068;6.968;2023-04-09T07:31:36;102077.69;;;9.80;82.85
3444;BME280;1736;52.068;6.968;2023-04-09T07:34:02;102078.03;;;9.90;82.33
3444;BME280;1736;52.068;6.968;2023-04-09T07:36:29;102076.03;;;9.93;82.37
3444;BME280;1736;52.068;6.968;2023-04-09T07:38:56;102074.91;;;10.13;81.26
3444;BME280;1736;52.068;6.968;2023-04-09T07:41:22;102070.00;;;10.21;80.50
3444;BME280;1736;52.068;6.968;2023-04-09T07:43:50;102072.34;;;10.25;80.04
3444;BME280;1736;52.068;6.968;2023-04-09T07:46:20;102069.50;;;10.42;80.10
3444;BME280;1736;52.068;6.968;2023-04-09T07:48:46;102076.56;;;10.43;79.86
3444;BME280;1736;52.068;6.968;2023-04-09T07:51:14;102067.44;;;10.62;78.65
3444;BME280;1736;52.068;6.968;2023-04-09T07:53:41;102066.41;;;10.78;78.88
3444;BME280;1736;52.068;6.968;2023-04-09T07:56:07;102066.28;;;10.80;77.85
3444;BME280;1736;52.068;6.968;2023-04-09T07:58:35;102069.63;;;10.83;76.91
3444;BME280;1736;52.068;6.968;2023-04-09T08:01:03;102078.22;;;11.01;77.85
3444;BME280;1736;52.068;6.968;2023-04-09T08:03:30;102078.28;;;11.13;76.48
3444;BME280;1736;52.068;6.968;2023-04-09T08:05:56;102074.28;;;11.20;74.41
3444;BME280;1736;52.068;6.968;2023-04-09T08:08:23;102073.75;;;11.42;73.27
3444;BME280;1736;52.068;6.968;2023-04-09T08:10:49;102081.56;;;11.31;72.60
3444;BME280;1736;52.068;6.968;2023-04-09T08:13:16;102071.75;;;11.45;70.20
3444;BME280;1736;52.068;6.968;2023-04-09T08:15:43;102074.91;;;11.38;71.02
3444;BME280;1736;52.068;6.968;2023-04-09T08:18:10;102076.97;;;11.47;71.11
3444;BME280;1736;52.068;6.968;2023-04-09T08:20:37;102068.47;;;11.54;68.66
3444;BME280;1736;52.068;6.968;2023-04-09T08:23:09;102074.72;;;11.67;68.76
3444;BME280;1736;52.068;6.968;2023-04-09T08:25:35;102068.38;;;11.70;67.10
3444;BME280;1736;52.068;6.968;2023-04-09T08:28:02;102069.78;;;11.88;67.19
3444;BME280;1736;52.068;6.968;2023-04-09T08:30:28;102071.38;;;11.78;67.24
3444;BME280;1736;52.068;6.968;2023-04-09T08:32:55;102069.25;;;11.83;66.75
3444;BME280;1736;52.068;6.968;2023-04-09T08:35:23;102070.84;;;11.98;65.72
3444;BME280;1736;52.068;6.968;2023-04-09T08:37:50;102068.31;;;12.09;64.97
3444;BME280;1736;52.068;6.968;2023-04-09T08:40:16;102063.78;;;12.11;64.09
3444;BME280;1736;52.068;6.968;2023-04-09T08:42:44;102072.16;;;12.05;64.90
3444;BME280;1736;52.068;6.968;2023-04-09T08:45:11;102071.44;;;12.28;63.47
3444;BME280;1736;52.068;6.968;2023-04-09T08:47:39;102074.44;;;12.36;60.95
3444;BME280;1736;52.068;6.968;2023-04-09T08:50:13;102063.25;;;12.31;61.19
3444;BME280;1736;52.068;6.968;2023-04-09T08:52:41;102062.28;;;12.44;59.31
3444;BME280;1736;52.068;6.968;2023-04-09T08:55:10;102062.69;;;12.51;59.51
3444;BME280;1736;52.068;6.968;2023-04-09T08:57:43;102060.91;;;12.51;59.99
3444;BME280;1736;52.068;6.968;2023-04-09T09:00:10;102064.63;;;12.61;59.79
3444;BME280;1736;52.068;6.968;2023-04-09T09:02:37;102060.13;;;12.62;60.13
3444;BME280;1736;52.068;6.968;2023-04-09T09:05:05;102059.63;;;12.57;58.12
3444;BME280;1736;52.068;6.968;2023-04-09T09:07:31;102063.13;;;12.57;56.31
3444;BME280;1736;52.068;6.968;2023-04-09T09:10:00;102060.13;;;12.74;55.66
3444;BME280;1736;52.068;6.968;2023-04-09T09:12:35;102053.94;;;12.74;56.98
3444;BME280;1736;52.068;6.968;2023-04-09T09:15:03;102056.41;;;12.77;55.07
3444;BME280;1736;52.068;6.968;2023-04-09T09:17:30;102053.25;;;12.95;55.36
3444;BME280;1736;52.068;6.968;2023-04-09T09:19:56;102063.31;;;12.92;55.99
3444;BME280;1736;52.068;6.968;2023-04-09T09:22:23;102053.94;;;12.74;53.55
3444;BME280;1736;52.068;6.968;2023-04-09T09:24:51;102056.25;;;12.91;54.00
3444;BME280;1736;52.068;6.968;2023-04-09T09:27:32;102056.25;;;12.91;54.74
3444;BME280;1736;52.068;6.968;2023-04-09T09:30:01;102058.47;;;13.09;53.21
3444;BME280;1736;52.068;6.968;2023-04-09T09:32:27;102057.28;;;13.13;52.29
3444;BME280;1736;52.068;6.968;2023-04-09T09:34:59;102051.41;;;13.21;52.58
3444;BME280;1736;52.068;6.968;2023-04-09T09:37:27;102054.63;;;13.13;50.93
3444;BME280;1736;52.068;6.968;2023-04-09T09:39:53;102051.78;;;13.04;50.93
3444;BME280;1736;52.068;6.968;2023-04-09T09:42:20;102046.88;;;13.10;51.06
3444;BME280;1736;52.068;6.968;2023-04-09T09:44:49;102047.81;;;13.09;52.67
3444;BME280;1736;52.068;6.968;2023-04-09T09:47:17;102034.66;;;13.19;49.90
3444;BME280;1736;52.068;6.968;2023-04-09T09:49:43;102030.31;;;13.18;50.53
3444;BME280;1736;52.068;6.968;2023-04-09T09:52:10;102032.75;;;13.21;50.86
3444;BME280;1736;52.068;6.968;2023-04-09T09:54:39;102028.72;;;13.15;50.53
3444;BME280;1736;52.068;6.968;2023-04-09T09:57:06;102027.88;;;13.38;49.38
3444;BME280;1736;52.068;6.968;2023-04-09T09:59:37;102022.34;;;13.52;47.54
3444;BME280;1736;52.068;6.968;2023-04-09T10:02:14;102024.91;;;13.54;46.96
3444;BME280;1736;52.068;6.968;2023-04-09T10:04:43;102019.59;;;13.54;47.78
3444;BME280;1736;52.068;6.968;2023-04-09T10:07:12;102021.38;;;13.42;48.78
3444;BME280;1736;52.068;6.968;2023-04-09T10:09:41;102021.44;;;13.17;49.94
3444;BME280;1736;52.068;6.968;2023-04-09T10:12:10;102008.28;;;13.27;51.19
3444;BME280;1736;52.068;6.968;2023-04-09T10:14:38;102011.13;;;13.36;51.44
3444;BME280;1736;52.068;6.968;2023-04-09T10:17:06;102010.06;;;13.39;51.25
3444;BME280;1736;52.068;6.968;2023-04-09T10:19:37;102013.50;;;13.52;50.96
3444;BME280;1736;52.068;6.968;2023-04-09T10:22:09;102010.69;;;13.42;51.51
3444;BME280;1736;52.068;6.968;2023-04-09T10:24:36;102002.06;;;13.39;53.06
3444;BME280;1736;52.068;6.968;2023-04-09T10:27:09;102009.34;;;13.37;50.95
3444;BME280;1736;52.068;6.968;2023-04-09T10:29:42;102007.88;;;13.44;51.41
3444;BME280;1736;52.068;6.968;2023-04-09T10:32:10;102003.81;;;13.51;51.62
3444;BME280;1736;52.068;6.968;2023-04-09T10:34:38;102004.47;;;13.65;50.86
3444;BME280;1736;52.068;6.968;2023-04-09T10:37:06;101998.53;;;13.62;51.46
3444;BME280;1736;52.068;6.968;2023-04-09T10:39:38;102001.41;;;13.59;50.84
3444;BME280;1736;52.068;6.968;2023-04-09T10:42:07;101997.09;;;13.69;51.61
3444;BME280;1736;52.068;6.968;2023-04-09T10:44:38;101989.59;;;13.74;49.30
3444;BME280;1736;52.068;6.968;2023-04-09T10:47:05;101989.84;;;13.93;50.13
3444;BME280;1736;52.068;6.968;2023-04-09T10:49:36;102002.59;;;13.89;48.46
3444;BME280;1736;52.068;6.968;2023-04-09T10:52:04;101989.25;;;13.89;48.51
3444;BME280;1736;52.068;6.968;2023-04-09T10:54:39;101994.13;;;14.06;49.05
3444;BME280;1736;52.068;6.968;2023-04-09T10:57:16;101989.91;;;14.15;48.27
3444;BME280;1736;52.068;6.968;2023-04-09T10:59:44;101990.19;;;14.23;49.84
3444;BME280;1736;52.068;6.968;2023-04-09T11:02:43;101989.91;;;14.15;48.47
3444;BME280;1736;52.068;6.968;2023-04-09T11:05:23;101989.44;;;14.21;48.47
3444;BME280;1736;52.068;6.968;2023-04-09T11:07:53;101982.78;;;14.37;49.17
3444;BME280;1736;52.068;6.968;2023-04-09T11:10:21;101978.53;;;14.46;48.15
3444;BME280;1736;52.068;6.968;2023-04-09T11:12:48;101969.28;;;14.72;47.62
3444;BME280;1736;52.068;6.968;2023-04-09T11:15:15;101967.66;;;14.91;47.15
3444;BME280;1736;52.068;6.968;2023-04-09T11:17:42;101963.22;;;15.12;47.69
3444;BME280;1736;52.068;6.968;2023-04-09T11:20:09;101962.06;;;15.05;44.00
3444;BME280;1736;52.068;6.968;2023-04-09T11:22:37;101947.56;;;14.65;44.09
3444;BME280;1736;52.068;6.968;2023-04-09T11:25:04;101953.28;;;14.50;45.37
3444;BME280;1736;52.068;6.968;2023-04-09T11:27:36;101951.97;;;14.44;45.64
3444;BME280;1736;52.068;6.968;2023-04-09T11:30:03;101950.88;;;14.36;46.53
3444;BME280;1736;52.068;6.968;2023-04-09T11:32:30;101952.28;;;14.62;46.27
3444;BME280;1736;52.068;6.968;2023-04-09T11:34:57;101948.94;;;14.38;45.63
3444;BME280;1736;52.068;6.968;2023-04-09T11:37:23;101950.13;;;14.56;45.45
3444;BME280;1736;52.068;6.968;2023-04-09T11:39:52;101952.06;;;14.65;46.15
3444;BME280;1736;52.068;6.968;2023-04-09T11:42:19;101950.66;;;14.92;45.03
3444;BME280;1736;52.068;6.968;2023-04-09T11:44:47;101952.97;;;14.86;44.29
3444;BME280;1736;52.068;6.968;2023-04-09T11:47:15;101952.28;;;14.73;44.86
3444;BME280;1736;52.068;6.968;2023-04-09T11:49:43;101941.16;;;14.35;45.21
3444;BME280;1736;52.068;6.968;2023-04-09T11:52:11;101937.28;;;14.39;45.87
3444;BME280;1736;52.068;6.968;2023-04-09T11:54:37;101937.97;;;14.63;45.52
3444;BME280;1736;52.068;6.968;2023-04-09T11:57:05;101938.22;;;14.71;45.55
3444;BME280;1736;52.068;6.968;2023-04-09T11:59:31;101938.56;;;14.66;44.88
3444;BME280;1736;52.068;6.968;2023-04-09T12:01:58;101937.91;;;14.85;44.72
3444;BME280;1736;52.068;6.968;2023-04-09T12:04:25;101938.88;;;14.95;46.14
3444;BME280;1736;52.068;6.968;2023-04-09T12:06:55;101938.81;;;14.74;45.03
3444;BME280;1736;52.068;6.968;2023-04-09T12:09:23;101934.75;;;14.91;44.43
3444;BME280;1736;52.068;6.968;2023-04-09T12:11:49;101947.38;;;15.00;44.97
3444;BME280;1736;52.068;6.968;2023-04-09T12:14:19;101931.81;;;14.94;44.36
3444;BME280;1736;52.068;6.968;2023-04-09T12:16:50;101929.34;;;15.02;43.76
3444;BME280;1736;52.068;6.968;2023-04-09T12:19:16;101920.66;;;14.89;44.76
3444;BME280;1736;52.068;6.968;2023-04-09T12:21:45;101925.97;;;15.00;44.40
3444;BME280;1736;52.068;6.968;2023-04-09T12:24:12;101926.66;;;14.81;44.02
3444;BME280;1736;52.068;6.968;2023-04-09T12:26:38;101931.31;;;14.68;44.53
3444;BME280;1736;52.068;6.968;2023-04-09T12:29:05;101921.50;;;14.47;46.31
3444;BME280;1736;52.068;6.968;2023-04-09T12:31:33;101934.56;;;14.61;46.20
3444;BME280;1736;52.068;6.968;2023-04-09T12:34:00;101935.09;;;14.55;45.92
3444;BME280;1736;52.068;6.968;2023-04-09T12:36:26;101932.13;;;14.69;45.24
3444;BME280;1736;52.068;6.968;2023-04-09T12:38:54;101921.09;;;14.62;44.70
3444;BME280;1736;52.068;6.968;2023-04-09T12:41:20;101919.63;;;14.58;44.67
3444;BME280;1736;52.068;6.968;2023-04-09T12:43:47;101918.06;;;14.45;44.87
3444;BME280;1736;52.068;6.968;2023-04-09T12:46:14;101917.84;;;14.59;46.63
3444;BME280;1736;52.068;6.968;2023-04-09T12:48:42;101919.69;;;14.90;46.05
3444;BME280;1736;52.068;6.968;2023-04-09T12:51:10;101921.09;;;15.05;45.08
3444;BME280;1736;52.068;6.968;2023-04-09T12:53:36;101920.53;;;15.22;45.04
3444;BME280;1736;52.068;6.968;2023-04-09T12:56:03;101919.31;;;15.26;44.09
3444;BME280;1736;52.068;6.968;2023-04-09T12:58:30;101928.50;;;15.44;43.94
3444;BME280;1736;52.068;6.968;2023-04-09T13:00:57;101927.78;;;15.63;43.84
3444;BME280;1736;52.068;6.968;2023-04-09T13:03:24;101933.47;;;15.69;43.41
3444;BME280;1736;52.068;6.968;2023-04-09T13:05:52;101939.34;;;15.84;43.29
3444;BME280;1736;52.068;6.968;2023-04-09T13:08:19;101925.34;;;15.80;43.54
3444;BME280;1736;52.068;6.968;2023-04-09T13:10:45;101921.22;;;15.67;44.56
3444;BME280;1736;52.068;6.968;2023-04-09T13:13:12;101923.34;;;15.52;44.54
3444;BME280;1736;52.068;6.968;2023-04-09T13:15:39;101926.66;;;15.13;44.18
3444;BME280;1736;52.068;6.968;2023-04-09T13:18:07;101919.00;;;15.08;44.98
3444;BME280;1736;52.068;6.968;2023-04-09T13:20:34;101910.63;;;14.81;45.95
3444;BME280;1736;52.068;6.968;2023-04-09T13:23:02;101911.84;;;14.66;44.89
3444;BME280;1736;52.068;6.968;2023-04-09T13:25:28;101905.53;;;14.67;45.70
3444;BME280;1736;52.068;6.968;2023-04-09T13:27:55;101901.16;;;14.77;45.44